sensor_id;sensor_type;location;lat;lon;timestamp;P1;durP1;ratioP1;P2;durP2;ratioP2
20611;SDS011;10465;42.686;23.364;2022-12-18T00:00:57;9.77;;;7.05;;
20611;SDS011;10465;42.686;23.364;2022-12-18T00:03:22;9.48;;;6.32;;
20611;SDS011;10465;42.686;23.364;2022-12-18T00:05:49;9.32;;;7.05;;
20611;SDS011;10465;42.686;23.364;2022-12-18T00:08:15;9.15;;;6.75;;
20611;SDS011;10465;42.686;23.364;2022-12-18T00:10:41;9.52;;;6.57;;
20611;SDS011;10465;42.686;23.364;2022-12-18T00:13:06;8.45;;;6.30;;
20611;SDS011;10465;42.686;23.364;2022-12-18T00:15:35;10.20;;;7.28;;
20611;SDS011;10465;42.686;23.364;2022-12-18T00:18:01;9.55;;;6.95;;
20611;SDS011;10465;42.686;23.364;2022-12-18T00:20:26;9.40;;;6.78;;
20611;SDS011;10465;42.686;23.364;2022-12-18T00:22:52;10.70;;;7.18;;
20611;SDS011;10465;42.686;23.364;2022-12-18T00:25:18;12.20;;;7.03;;
20611;SDS011;10465;42.686;23.364;2022-12-18T00:27:44;10.57;;;7.78;;
20611;SDS011;10465;42.686;23.364;2022-12-18T00:30:09;9.88;;;7.03;;
20611;SDS011;10465;42.686;23.364;2022-12-18T00:32:35;10.48;;;7.45;;
20611;SDS011;10465;42.686;23.364;2022-12-18T00:35:01;10.75;;;6.43;;
20611;SDS011;10465;42.686;23.364;2022-12-18T00:37:26;10.13;;;7.28;;
20611;SDS011;10465;42.686;23.364;2022-12-18T00:39:52;10.15;;;7.15;;
20611;SDS011;10465;42.686;23.364;2022-12-18T00:42:17;10.77;;;7.28;;
20611;SDS011;10465;42.686;23.364;2022-12-18T00:45:01;11.27;;;7.50;;
20611;SDS011;10465;42.686;23.364;2022-12-18T00:47:27;10.23;;;7.20;;
20611;SDS011;10465;42.686;23.364;2022-12-18T00:49:53;9.85;;;7.50;;
20611;SDS011;10465;42.686;23.364;2022-12-18T00:52:18;10.98;;;6.90;;
20611;SDS011;10465;42.686;23.364;2022-12-18T00:54:44;10.50;;;6.72;;
20611;SDS011;10465;42.686;23.364;2022-12-18T00:57:09;9.60;;;7.05;;
20611;SDS011;10465;42.686;23.364;2022-12-18T00:59:34;9.13;;;6.72;;
20611;SDS011;10465;42.686;23.364;2022-12-18T01:02:00;9.40;;;6.80;;
20611;SDS011;10465;42.686;23.364;2022-12-18T01:04:25;9.68;;;6.85;;
20611;SDS011;10465;42.686;23.364;2022-12-18T01:06:51;9.77;;;6.68;;
20611;SDS011;10465;42.686;23.364;2022-12-18T01:09:16;8.52;;;6.28;;
20611;SDS011;10465;42.686;23.364;2022-12-18T01:11:42;11.48;;;7.03;;
20611;SDS011;10465;42.686;23.364;2022-12-18T01:14:07;9.50;;;7.22;;
20611;SDS011;10465;42.686;23.364;2022-12-18T01:16:33;11.35;;;7.30;;
20611;SDS011;10465;42.686;23.364;2022-12-18T01:18:58;10.98;;;7.32;;
20611;SDS011;10465;42.686;23.364;2022-12-18T01:21:24;10.38;;;7.03;;
20611;SDS011;10465;42.686;23.364;2022-12-18T01:23:53;10.55;;;7.35;;
20611;SDS011;10465;42.686;23.364;2022-12-18T01:26:20;10.57;;;7.65;;
20611;SDS011;10465;42.686;23.364;2022-12-18T01:28:46;10.85;;;7.68;;
20611;SDS011;10465;42.686;23.364;2022-12-18T01:31:24;10.02;;;7.68;;
20611;SDS011;10465;42.686;23.364;2022-12-18T01:33:52;12.18;;;7.30;;
20611;SDS011;10465;42.686;23.364;2022-12-18T01:36:19;13.45;;;8.77;;
20611;SDS011;10465;42.686;23.364;2022-12-18T01:38:47;13.70;;;8.68;;
20611;SDS011;10465;42.686;23.364;2022-12-18T01:41:13;13.45;;;8.65;;
20611;SDS011;10465;42.686;23.364;2022-12-18T01:43:45;11.13;;;7.57;;
20611;SDS011;10465;42.686;23.364;2022-12-18T01:46:11;12.00;;;9.02;;
20611;SDS011;10465;42.686;23.364;2022-12-18T01:48:37;11.60;;;7.78;;
20611;SDS011;10465;42.686;23.364;2022-12-18T01:51:04;11.75;;;8.02;;
20611;SDS011;10465;42.686;23.364;2022-12-18T01:53:31;12.23;;;8.50;;
20611;SDS011;10465;42.686;23.364;2022-12-18T01:55:56;13.52;;;8.25;;
20611;SDS011;10465;42.686;23.364;2022-12-18T02:01:09;14.75;;;8.70;;
20611;SDS011;10465;42.686;23.364;2022-12-18T02:03:35;11.60;;;8.15;;
20611;SDS011;10465;42.686;23.364;2022-12-18T02:06:13;11.65;;;7.47;;
20611;SDS011;10465;42.686;23.364;2022-12-18T02:08:45;11.52;;;7.85;;
20611;SDS011;10465;42.686;23.364;2022-12-18T02:11:22;13.55;;;8.85;;
20611;SDS011;10465;42.686;23.364;2022-12-18T02:16:40;9.90;;;7.30;;
20611;SDS011;10465;42.686;23.364;2022-12-18T02:24:42;13.52;;;7.95;;
20611;SDS011;10465;42.686;23.364;2022-12-18T02:27:18;10.95;;;7.20;;
20611;SDS011;10465;42.686;23.364;2022-12-18T02:29:46;10.15;;;6.75;;
20611;SDS011;10465;42.686;23.364;2022-12-18T02:32:16;10.45;;;6.85;;
20611;SDS011;10465;42.686;23.364;2022-12-18T02:34:47;10.60;;;7.43;;
20611;SDS011;10465;42.686;23.364;2022-12-18T02:37:16;10.25;;;7.03;;
20611;SDS011;10465;42.686;23.364;2022-12-18T02:39:43;10.55;;;6.97;;
20611;SDS011;10465;42.686;23.364;2022-12-18T02:42:12;11.27;;;7.03;;
20611;SDS011;10465;42.686;23.364;2022-12-18T02:44:42;9.68;;;6.88;;
20611;SDS011;10465;42.686;23.364;2022-12-18T02:47:12;11.43;;;7.47;;
20611;SDS011;10465;42.686;23.364;2022-12-18T02:49:42;11.20;;;7.25;;
20611;SDS011;10465;42.686;23.364;2022-12-18T02:57:56;11.93;;;6.97;;
20611;SDS011;10465;42.686;23.364;2022-12-18T03:03:10;10.02;;;7.03;;
20611;SDS011;10465;42.686;23.364;2022-12-18T03:08:24;12.40;;;8.02;;
20611;SDS011;10465;42.686;23.364;2022-12-18T03:10:58;11.23;;;8.05;;
20611;SDS011;10465;42.686;23.364;2022-12-18T03:13:34;11.82;;;7.40;;
20611;SDS011;10465;42.686;23.364;2022-12-18T03:16:05;12.80;;;7.88;;
20611;SDS011;10465;42.686;23.364;2022-12-18T03:18:38;14.75;;;7.63;;
20611;SDS011;10465;42.686;23.364;2022-12-18T03:21:05;10.93;;;8.07;;
20611;SDS011;10465;42.686;23.364;2022-12-18T03:23:34;11.23;;;7.40;;
20611;SDS011;10465;42.686;23.364;2022-12-18T03:26:09;12.02;;;7.38;;
20611;SDS011;10465;42.686;23.364;2022-12-18T03:28:38;9.93;;;7.13;;
20611;SDS011;10465;42.686;23.364;2022-12-18T03:31:08;10.63;;;7.22;;
20611;SDS011;10465;42.686;23.364;2022-12-18T03:33:44;10.00;;;7.13;;
20611;SDS011;10465;42.686;23.364;2022-12-18T03:36:15;12.23;;;7.78;;
20611;SDS011;10465;42.686;23.364;2022-12-18T03:38:41;11.48;;;8.13;;
20611;SDS011;10465;42.686;23.364;2022-12-18T03:41:15;11.80;;;7.45;;
20611;SDS011;10465;42.686;23.364;2022-12-18T03:43:57;12.18;;;8.50;;
20611;SDS011;10465;42.686;23.364;2022-12-18T03:46:38;17.63;;;10.00;;
20611;SDS011;10465;42.686;23.364;2022-12-18T03:52:20;15.02;;;8.95;;
20611;SDS011;10465;42.686;23.364;2022-12-18T03:54:51;12.75;;;7.90;;
20611;SDS011;10465;42.686;23.364;2022-12-18T03:57:19;12.02;;;7.60;;
20611;SDS011;10465;42.686;23.364;2022-12-18T03:59:49;11.80;;;7.93;;
20611;SDS011;10465;42.686;23.364;2022-12-18T04:02:19;13.15;;;8.13;;
20611;SDS011;10465;42.686;23.364;2022-12-18T04:04:47;13.25;;;8.25;;
20611;SDS011;10465;42.686;23.364;2022-12-18T04:07:16;12.63;;;7.68;;
20611;SDS011;10465;42.686;23.364;2022-12-18T04:09:42;12.63;;;8.27;;
20611;SDS011;10465;42.686;23.364;2022-12-18T04:12:09;10.10;;;7.28;;
20611;SDS011;10465;42.686;23.364;2022-12-18T04:14:35;11.68;;;7.80;;
20611;SDS011;10465;42.686;23.364;2022-12-18T04:17:01;13.25;;;8.38;;
20611;SDS011;10465;42.686;23.364;2022-12-18T04:19:27;11.25;;;7.60;;
20611;SDS011;10465;42.686;23.364;2022-12-18T04:21:53;12.80;;;8.50;;
20611;SDS011;10465;42.686;23.364;2022-12-18T04:24:18;16.77;;;9.20;;
20611;SDS011;10465;42.686;23.364;2022-12-18T04:26:44;12.57;;;8.35;;
20611;SDS011;10465;42.686;23.364;2022-12-18T04:29:12;12.82;;;8.77;;
20611;SDS011;10465;42.686;23.364;2022-12-18T04:31:38;12.27;;;8.30;;
20611;SDS011;10465;42.686;23.364;2022-12-18T04:34:03;13.60;;;9.27;;
20611;SDS011;10465;42.686;23.364;2022-12-18T04:36:29;14.25;;;8.98;;
20611;SDS011;10465;42.686;23.364;2022-12-18T04:38:54;13.30;;;8.63;;
20611;SDS011;10465;42.686;23.364;2022-12-18T04:41:20;13.30;;;9.10;;
20611;SDS011;10465;42.686;23.364;2022-12-18T04:43:46;14.60;;;9.25;;
20611;SDS011;10465;42.686;23.364;2022-12-18T04:46:11;15.88;;;9.50;;
20611;SDS011;10465;42.686;23.364;2022-12-18T04:48:37;14.40;;;9.23;;
20611;SDS011;10465;42.686;23.364;2022-12-18T04:51:03;15.43;;;9.48;;
20611;SDS011;10465;42.686;23.364;2022-12-18T04:53:32;13.38;;;9.20;;
20611;SDS011;10465;42.686;23.364;2022-12-18T04:56:08;17.40;;;10.57;;
20611;SDS011;10465;42.686;23.364;2022-12-18T04:58:35;16.55;;;10.05;;
20611;SDS011;10465;42.686;23.364;2022-12-18T05:01:02;15.10;;;9.60;;
20611;SDS011;10465;42.686;23.364;2022-12-18T05:03:27;15.02;;;9.57;;
20611;SDS011;10465;42.686;23.364;2022-12-18T05:05:53;16.02;;;10.30;;
20611;SDS011;10465;42.686;23.364;2022-12-18T05:08:18;15.88;;;10.07;;
20611;SDS011;10465;42.686;23.364;2022-12-18T05:10:44;15.85;;;10.48;;
20611;SDS011;10465;42.686;23.364;2022-12-18T05:13:09;16.73;;;10.70;;
20611;SDS011;10465;42.686;23.364;2022-12-18T05:15:35;18.55;;;10.90;;
20611;SDS011;10465;42.686;23.364;2022-12-18T05:18:01;15.70;;;10.18;;
20611;SDS011;10465;42.686;23.364;2022-12-18T05:20:27;17.60;;;10.85;;
20611;SDS011;10465;42.686;23.364;2022-12-18T05:22:53;17.67;;;11.13;;
20611;SDS011;10465;42.686;23.364;2022-12-18T05:25:19;17.95;;;10.95;;
20611;SDS011;10465;42.686;23.364;2022-12-18T05:27:45;21.17;;;11.43;;
20611;SDS011;10465;42.686;23.364;2022-12-18T05:30:12;16.98;;;10.82;;
20611;SDS011;10465;42.686;23.364;2022-12-18T05:32:38;18.48;;;10.88;;
20611;SDS011;10465;42.686;23.364;2022-12-18T05:35:04;19.73;;;11.70;;
20611;SDS011;10465;42.686;23.364;2022-12-18T05:37:31;18.98;;;11.35;;
20611;SDS011;10465;42.686;23.364;2022-12-18T05:39:57;19.25;;;11.40;;
20611;SDS011;10465;42.686;23.364;2022-12-18T05:42:22;19.48;;;11.80;;
20611;SDS011;10465;42.686;23.364;2022-12-18T05:44:48;17.50;;;11.10;;
20611;SDS011;10465;42.686;23.364;2022-12-18T05:47:13;21.25;;;11.68;;
20611;SDS011;10465;42.686;23.364;2022-12-18T05:49:39;20.23;;;12.10;;
20611;SDS011;10465;42.686;23.364;2022-12-18T05:52:04;18.38;;;11.50;;
20611;SDS011;10465;42.686;23.364;2022-12-18T05:54:30;17.70;;;11.10;;
20611;SDS011;10465;42.686;23.364;2022-12-18T05:56:56;18.80;;;11.35;;
20611;SDS011;10465;42.686;23.364;2022-12-18T05:59:22;20.20;;;11.65;;
20611;SDS011;10465;42.686;23.364;2022-12-18T06:01:47;20.60;;;11.73;;
20611;SDS011;10465;42.686;23.364;2022-12-18T06:04:12;18.15;;;11.35;;
20611;SDS011;10465;42.686;23.364;2022-12-18T06:06:38;19.42;;;11.75;;
20611;SDS011;10465;42.686;23.364;2022-12-18T06:09:03;19.52;;;12.32;;
20611;SDS011;10465;42.686;23.364;2022-12-18T06:11:34;19.10;;;12.38;;
20611;SDS011;10465;42.686;23.364;2022-12-18T06:14:01;17.48;;;11.70;;
20611;SDS011;10465;42.686;23.364;2022-12-18T06:16:27;19.10;;;12.55;;
20611;SDS011;10465;42.686;23.364;2022-12-18T06:18:57;20.38;;;12.05;;
20611;SDS011;10465;42.686;23.364;2022-12-18T06:21:23;18.23;;;11.77;;
20611;SDS011;10465;42.686;23.364;2022-12-18T06:23:49;20.15;;;11.93;;
20611;SDS011;10465;42.686;23.364;2022-12-18T06:26:14;20.42;;;11.80;;
20611;SDS011;10465;42.686;23.364;2022-12-18T06:28:40;20.58;;;12.05;;
20611;SDS011;10465;42.686;23.364;2022-12-18T06:31:06;18.65;;;11.55;;
20611;SDS011;10465;42.686;23.364;2022-12-18T06:33:31;20.00;;;11.70;;
20611;SDS011;10465;42.686;23.364;2022-12-18T06:36:04;23.52;;;13.35;;
20611;SDS011;10465;42.686;23.364;2022-12-18T06:38:32;19.33;;;12.00;;
20611;SDS011;10465;42.686;23.364;2022-12-18T06:40:59;19.02;;;11.73;;
20611;SDS011;10465;42.686;23.364;2022-12-18T06:43:25;20.10;;;11.52;;
20611;SDS011;10465;42.686;23.364;2022-12-18T06:45:50;18.90;;;11.80;;
20611;SDS011;10465;42.686;23.364;2022-12-18T06:48:18;21.35;;;12.57;;
20611;SDS011;10465;42.686;23.364;2022-12-18T06:50:45;23.90;;;13.23;;
20611;SDS011;10465;42.686;23.364;2022-12-18T06:53:10;20.38;;;11.75;;
20611;SDS011;10465;42.686;23.364;2022-12-18T06:55:36;19.00;;;11.40;;
20611;SDS011;10465;42.686;23.364;2022-12-18T06:58:01;19.52;;;11.95;;
20611;SDS011;10465;42.686;23.364;2022-12-18T07:00:27;19.65;;;11.63;;
20611;SDS011;10465;42.686;23.364;2022-12-18T07:02:52;20.10;;;12.15;;
20611;SDS011;10465;42.686;23.364;2022-12-18T07:05:18;19.83;;;11.65;;
20611;SDS011;10465;42.686;23.364;2022-12-18T07:07:43;18.73;;;11.82;;
20611;SDS011;10465;42.686;23.364;2022-12-18T07:10:08;20.52;;;12.02;;
20611;SDS011;10465;42.686;23.364;2022-12-18T07:12:34;19.40;;;10.32;;
20611;SDS011;10465;42.686;23.364;2022-12-18T07:15:00;18.15;;;10.85;;
20611;SDS011;10465;42.686;23.364;2022-12-18T07:17:25;17.55;;;11.18;;
20611;SDS011;10465;42.686;23.364;2022-12-18T07:19:51;22.02;;;11.98;;
20611;SDS011;10465;42.686;23.364;2022-12-18T07:22:16;19.58;;;11.63;;
20611;SDS011;10465;42.686;23.364;2022-12-18T07:24:41;20.95;;;11.52;;
20611;SDS011;10465;42.686;23.364;2022-12-18T07:27:07;23.52;;;11.90;;
20611;SDS011;10465;42.686;23.364;2022-12-18T07:29:32;21.65;;;12.80;;
20611;SDS011;10465;42.686;23.364;2022-12-18T07:31:58;23.77;;;13.07;;
20611;SDS011;10465;42.686;23.364;2022-12-18T07:34:23;23.08;;;13.70;;
20611;SDS011;10465;42.686;23.364;2022-12-18T07:36:49;23.02;;;13.80;;
20611;SDS011;10465;42.686;23.364;2022-12-18T07:39:14;21.67;;;13.05;;
20611;SDS011;10465;42.686;23.364;2022-12-18T07:41:40;22.80;;;13.85;;
20611;SDS011;10465;42.686;23.364;2022-12-18T07:44:11;24.63;;;13.68;;
20611;SDS011;10465;42.686;23.364;2022-12-18T07:46:37;23.77;;;13.73;;
20611;SDS011;10465;42.686;23.364;2022-12-18T07:49:03;22.90;;;13.90;;
20611;SDS011;10465;42.686;23.364;2022-12-18T07:51:29;24.60;;;14.55;;
20611;SDS011;10465;42.686;23.364;2022-12-18T07:53:54;25.05;;;13.63;;
20611;SDS011;10465;42.686;23.364;2022-12-18T07:56:21;24.80;;;13.57;;
20611;SDS011;10465;42.686;23.364;2022-12-18T07:58:46;22.33;;;13.27;;
20611;SDS011;10465;42.686;23.364;2022-12-18T08:01:12;24.25;;;14.13;;
20611;SDS011;10465;42.686;23.364;2022-12-18T08:03:38;22.90;;;13.73;;
20611;SDS011;10465;42.686;23.364;2022-12-18T08:06:05;25.35;;;14.38;;
20611;SDS011;10465;42.686;23.364;2022-12-18T08:08:33;24.48;;;14.40;;
20611;SDS011;10465;42.686;23.364;2022-12-18T08:10:59;22.70;;;13.05;;
20611;SDS011;10465;42.686;23.364;2022-12-18T08:13:25;26.00;;;15.25;;
20611;SDS011;10465;42.686;23.364;2022-12-18T08:16:09;27.55;;;16.48;;
20611;SDS011;10465;42.686;23.364;2022-12-18T08:18:36;24.52;;;14.23;;
20611;SDS011;10465;42.686;23.364;2022-12-18T08:21:09;24.33;;;15.30;;
20611;SDS011;10465;42.686;23.364;2022-12-18T08:23:34;27.33;;;15.65;;
20611;SDS011;10465;42.686;23.364;2022-12-18T08:26:00;27.25;;;15.25;;
20611;SDS011;10465;42.686;23.364;2022-12-18T08:28:26;25.58;;;14.05;;
20611;SDS011;10465;42.686;23.364;2022-12-18T08:30:51;26.20;;;15.10;;
20611;SDS011;10465;42.686;23.364;2022-12-18T08:33:18;25.75;;;15.07;;
20611;SDS011;10465;42.686;23.364;2022-12-18T08:35:44;25.27;;;15.45;;
20611;SDS011;10465;42.686;23.364;2022-12-18T08:38:09;30.40;;;16.88;;
20611;SDS011;10465;42.686;23.364;2022-12-18T08:40:35;26.00;;;14.45;;
20611;SDS011;10465;42.686;23.364;2022-12-18T08:43:00;26.23;;;14.20;;
20611;SDS011;10465;42.686;23.364;2022-12-18T08:45:44;25.35;;;14.80;;
20611;SDS011;10465;42.686;23.364;2022-12-18T08:48:09;25.45;;;14.50;;
20611;SDS011;10465;42.686;23.364;2022-12-18T08:50:35;24.02;;;14.57;;
20611;SDS011;10465;42.686;23.364;2022-12-18T08:53:01;24.63;;;14.65;;
20611;SDS011;10465;42.686;23.364;2022-12-18T08:55:26;26.75;;;14.75;;
20611;SDS011;10465;42.686;23.364;2022-12-18T08:57:52;26.40;;;13.95;;
20611;SDS011;10465;42.686;23.364;2022-12-18T09:00:17;25.42;;;14.60;;
20611;SDS011;10465;42.686;23.364;2022-12-18T09:02:43;24.58;;;14.75;;
20611;SDS011;10465;42.686;23.364;2022-12-18T09:05:08;23.33;;;13.25;;
20611;SDS011;10465;42.686;23.364;2022-12-18T09:07:34;21.65;;;13.98;;
20611;SDS011;10465;42.686;23.364;2022-12-18T09:09:59;21.88;;;13.70;;
20611;SDS011;10465;42.686;23.364;2022-12-18T09:12:25;26.73;;;14.10;;
20611;SDS011;10465;42.686;23.364;2022-12-18T09:14:50;21.10;;;13.02;;
20611;SDS011;10465;42.686;23.364;2022-12-18T09:17:16;22.42;;;13.82;;
20611;SDS011;10465;42.686;23.364;2022-12-18T09:19:41;22.00;;;13.60;;
20611;SDS011;10465;42.686;23.364;2022-12-18T09:22:08;21.70;;;12.70;;
20611;SDS011;10465;42.686;23.364;2022-12-18T09:24:34;22.88;;;13.07;;
20611;SDS011;10465;42.686;23.364;2022-12-18T09:27:00;24.00;;;12.00;;
20611;SDS011;10465;42.686;23.364;2022-12-18T09:29:25;20.73;;;12.52;;
20611;SDS011;10465;42.686;23.364;2022-12-18T09:31:51;24.67;;;13.98;;
20611;SDS011;10465;42.686;23.364;2022-12-18T09:34:16;20.70;;;12.88;;
20611;SDS011;10465;42.686;23.364;2022-12-18T09:36:42;22.05;;;12.30;;
20611;SDS011;10465;42.686;23.364;2022-12-18T09:39:08;23.13;;;12.95;;
20611;SDS011;10465;42.686;23.364;2022-12-18T09:44:09;21.45;;;12.35;;
20611;SDS011;10465;42.686;23.364;2022-12-18T09:46:37;20.77;;;12.48;;
20611;SDS011;10465;42.686;23.364;2022-12-18T09:49:09;22.48;;;12.85;;
20611;SDS011;10465;42.686;23.364;2022-12-18T09:51:41;22.33;;;13.07;;
20611;SDS011;10465;42.686;23.364;2022-12-18T09:54:21;21.10;;;12.02;;
20611;SDS011;10465;42.686;23.364;2022-12-18T09:56:51;24.02;;;13.20;;
20611;SDS011;10465;42.686;23.364;2022-12-18T09:59:24;20.40;;;11.98;;
20611;SDS011;10465;42.686;23.364;2022-12-18T10:01:57;19.60;;;12.88;;
20611;SDS011;10465;42.686;23.364;2022-12-18T10:04:23;22.95;;;13.13;;
20611;SDS011;10465;42.686;23.364;2022-12-18T10:06:58;21.73;;;11.65;;
20611;SDS011;10465;42.686;23.364;2022-12-18T10:09:37;21.05;;;12.00;;
20611;SDS011;10465;42.686;23.364;2022-12-18T10:12:34;21.15;;;12.80;;
20611;SDS011;10465;42.686;23.364;2022-12-18T10:15:24;21.42;;;13.05;;
20611;SDS011;10465;42.686;23.364;2022-12-18T10:18:25;21.73;;;12.68;;
20611;SDS011;10465;42.686;23.364;2022-12-18T10:21:10;21.00;;;12.38;;
20611;SDS011;10465;42.686;23.364;2022-12-18T10:23:44;20.30;;;12.57;;
20611;SDS011;10465;42.686;23.364;2022-12-18T10:26:16;22.55;;;12.65;;
20611;SDS011;10465;42.686;23.364;2022-12-18T10:28:42;19.45;;;11.32;;
20611;SDS011;10465;42.686;23.364;2022-12-18T10:31:16;18.17;;;11.13;;
20611;SDS011;10465;42.686;23.364;2022-12-18T10:33:43;21.67;;;12.25;;
20611;SDS011;10465;42.686;23.364;2022-12-18T10:36:08;21.27;;;11.18;;
20611;SDS011;10465;42.686;23.364;2022-12-18T10:38:35;20.65;;;11.75;;
20611;SDS011;10465;42.686;23.364;2022-12-18T10:41:01;21.88;;;12.52;;
20611;SDS011;10465;42.686;23.364;2022-12-18T10:43:30;19.65;;;12.00;;
20611;SDS011;10465;42.686;23.364;2022-12-18T10:48:39;19.77;;;11.90;;
20611;SDS011;10465;42.686;23.364;2022-12-18T10:51:22;21.02;;;11.88;;
20611;SDS011;10465;42.686;23.364;2022-12-18T10:53:59;21.15;;;12.43;;
20611;SDS011;10465;42.686;23.364;2022-12-18T10:56:27;20.65;;;12.07;;
20611;SDS011;10465;42.686;23.364;2022-12-18T10:59:04;24.45;;;14.07;;
20611;SDS011;10465;42.686;23.364;2022-12-18T11:01:45;20.00;;;11.82;;
20611;SDS011;10465;42.686;23.364;2022-12-18T11:04:26;23.05;;;13.38;;
20611;SDS011;10465;42.686;23.364;2022-12-18T11:07:00;24.50;;;13.52;;
20611;SDS011;10465;42.686;23.364;2022-12-18T11:09:29;22.25;;;13.52;;
20611;SDS011;10465;42.686;23.364;2022-12-18T11:12:00;23.85;;;14.15;;
20611;SDS011;10465;42.686;23.364;2022-12-18T11:14:31;24.20;;;14.00;;
20611;SDS011;10465;42.686;23.364;2022-12-18T11:16:59;22.45;;;12.90;;
20611;SDS011;10465;42.686;23.364;2022-12-18T11:19:35;21.25;;;12.82;;
20611;SDS011;10465;42.686;23.364;2022-12-18T11:24:43;23.27;;;12.95;;
20611;SDS011;10465;42.686;23.364;2022-12-18T11:27:17;21.23;;;11.98;;
20611;SDS011;10465;42.686;23.364;2022-12-18T11:29:44;22.48;;;13.23;;
20611;SDS011;10465;42.686;23.364;2022-12-18T11:35:02;23.90;;;14.18;;
20611;SDS011;10465;42.686;23.364;2022-12-18T11:37:28;24.73;;;14.82;;
20611;SDS011;10465;42.686;23.364;2022-12-18T11:39:56;24.60;;;13.98;;
20611;SDS011;10465;42.686;23.364;2022-12-18T11:45:33;18.92;;;12.18;;
20611;SDS011;10465;42.686;23.364;2022-12-18T11:48:04;26.10;;;13.85;;
20611;SDS011;10465;42.686;23.364;2022-12-18T11:50:50;24.40;;;13.65;;
20611;SDS011;10465;42.686;23.364;2022-12-18T11:53:18;23.65;;;13.23;;
20611;SDS011;10465;42.686;23.364;2022-12-18T12:01:16;22.08;;;12.10;;
20611;SDS011;10465;42.686;23.364;2022-12-18T12:14:53;25.83;;;14.27;;
20611;SDS011;10465;42.686;23.364;2022-12-18T12:17:38;25.13;;;14.18;;
20611;SDS011;10465;42.686;23.364;2022-12-18T12:22:48;28.13;;;14.43;;
20611;SDS011;10465;42.686;23.364;2022-12-18T12:25:19;28.08;;;14.48;;
20611;SDS011;10465;42.686;23.364;2022-12-18T12:35:52;22.30;;;12.85;;
20611;SDS011;10465;42.686;23.364;2022-12-18T12:38:40;21.63;;;12.38;;
20611;SDS011;10465;42.686;23.364;2022-12-18T12:41:12;22.83;;;13.07;;
20611;SDS011;10465;42.686;23.364;2022-12-18T12:44:01;25.33;;;13.27;;
20611;SDS011;10465;42.686;23.364;2022-12-18T12:46:31;24.63;;;13.07;;
20611;SDS011;10465;42.686;23.364;2022-12-18T12:49:02;22.23;;;13.55;;
20611;SDS011;10465;42.686;23.364;2022-12-18T12:51:31;21.95;;;12.98;;
20611;SDS011;10465;42.686;23.364;2022-12-18T12:54:04;21.92;;;12.65;;
20611;SDS011;10465;42.686;23.364;2022-12-18T12:56:39;22.15;;;13.30;;
20611;SDS011;10465;42.686;23.364;2022-12-18T13:02:04;23.02;;;13.55;;
20611;SDS011;10465;42.686;23.364;2022-12-18T13:04:42;25.75;;;14.68;;
20611;SDS011;10465;42.686;23.364;2022-12-18T13:07:20;26.42;;;15.82;;
20611;SDS011;10465;42.686;23.364;2022-12-18T13:12:56;23.67;;;13.65;;
20611;SDS011;10465;42.686;23.364;2022-12-18T13:20:37;19.13;;;11.68;;
20611;SDS011;10465;42.686;23.364;2022-12-18T13:25:52;18.13;;;11.02;;
20611;SDS011;10465;42.686;23.364;2022-12-18T13:28:23;24.92;;;13.52;;
20611;SDS011;10465;42.686;23.364;2022-12-18T13:31:08;22.95;;;13.35;;
20611;SDS011;10465;42.686;23.364;2022-12-18T13:36:12;21.45;;;12.93;;
20611;SDS011;10465;42.686;23.364;2022-12-18T13:39:09;22.27;;;13.02;;
20611;SDS011;10465;42.686;23.364;2022-12-18T13:41:41;23.95;;;13.75;;
20611;SDS011;10465;42.686;23.364;2022-12-18T13:44:11;22.80;;;13.65;;
20611;SDS011;10465;42.686;23.364;2022-12-18T13:46:48;25.30;;;14.52;;
20611;SDS011;10465;42.686;23.364;2022-12-18T13:49:23;26.17;;;13.77;;
20611;SDS011;10465;42.686;23.364;2022-12-18T13:52:01;24.70;;;14.18;;
20611;SDS011;10465;42.686;23.364;2022-12-18T13:54:40;21.15;;;12.50;;
20611;SDS011;10465;42.686;23.364;2022-12-18T14:00:14;25.13;;;14.10;;
20611;SDS011;10465;42.686;23.364;2022-12-18T14:02:44;22.65;;;13.30;;
20611;SDS011;10465;42.686;23.364;2022-12-18T14:05:21;21.75;;;12.75;;
20611;SDS011;10465;42.686;23.364;2022-12-18T14:07:51;21.08;;;12.95;;
20611;SDS011;10465;42.686;23.364;2022-12-18T14:10:18;24.50;;;14.35;;
20611;SDS011;10465;42.686;23.364;2022-12-18T14:12:46;22.70;;;13.75;;
20611;SDS011;10465;42.686;23.364;2022-12-18T14:17:51;19.92;;;12.68;;
20611;SDS011;10465;42.686;23.364;2022-12-18T14:20:22;21.08;;;12.43;;
20611;SDS011;10465;42.686;23.364;2022-12-18T14:22:49;22.77;;;12.85;;
20611;SDS011;10465;42.686;23.364;2022-12-18T14:25:16;22.23;;;13.13;;
20611;SDS011;10465;42.686;23.364;2022-12-18T14:27:45;20.30;;;12.35;;
20611;SDS011;10465;42.686;23.364;2022-12-18T14:30:26;22.25;;;12.02;;
20611;SDS011;10465;42.686;23.364;2022-12-18T14:33:09;20.27;;;12.32;;
20611;SDS011;10465;42.686;23.364;2022-12-18T14:35:37;23.95;;;13.18;;
20611;SDS011;10465;42.686;23.364;2022-12-18T14:40:43;23.38;;;12.75;;
20611;SDS011;10465;42.686;23.364;2022-12-18T14:43:12;25.27;;;14.52;;
20611;SDS011;10465;42.686;23.364;2022-12-18T14:45:39;20.38;;;11.77;;
20611;SDS011;10465;42.686;23.364;2022-12-18T14:48:17;20.42;;;12.27;;
20611;SDS011;10465;42.686;23.364;2022-12-18T14:50:54;21.88;;;12.32;;
20611;SDS011;10465;42.686;23.364;2022-12-18T14:53:28;19.80;;;11.82;;
20611;SDS011;10465;42.686;23.364;2022-12-18T14:55:58;20.75;;;11.25;;
20611;SDS011;10465;42.686;23.364;2022-12-18T14:58:25;19.50;;;10.48;;
20611;SDS011;10465;42.686;23.364;2022-12-18T15:00:51;19.83;;;11.77;;
20611;SDS011;10465;42.686;23.364;2022-12-18T15:03:18;23.65;;;11.50;;
20611;SDS011;10465;42.686;23.364;2022-12-18T15:05:45;19.05;;;10.93;;
20611;SDS011;10465;42.686;23.364;2022-12-18T15:16:52;19.17;;;11.45;;
20611;SDS011;10465;42.686;23.364;2022-12-18T15:19:20;22.55;;;10.90;;
20611;SDS011;10465;42.686;23.364;2022-12-18T15:21:47;19.52;;;11.00;;
20611;SDS011;10465;42.686;23.364;2022-12-18T15:24:20;21.38;;;11.93;;
20611;SDS011;10465;42.686;23.364;2022-12-18T15:26:51;20.42;;;10.32;;
20611;SDS011;10465;42.686;23.364;2022-12-18T15:29:21;19.67;;;10.57;;
20611;SDS011;10465;42.686;23.364;2022-12-18T15:32:04;17.85;;;11.05;;
20611;SDS011;10465;42.686;23.364;2022-12-18T15:34:40;20.77;;;11.30;;
20611;SDS011;10465;42.686;23.364;2022-12-18T15:37:06;22.90;;;11.65;;
20611;SDS011;10465;42.686;23.364;2022-12-18T15:39:32;21.77;;;12.38;;
20611;SDS011;10465;42.686;23.364;2022-12-18T15:42:00;22.23;;;12.35;;
20611;SDS011;10465;42.686;23.364;2022-12-18T15:44:44;21.05;;;11.18;;
20611;SDS011;10465;42.686;23.364;2022-12-18T15:47:11;20.55;;;11.55;;
20611;SDS011;10465;42.686;23.364;2022-12-18T15:49:38;20.13;;;12.20;;
20611;SDS011;10465;42.686;23.364;2022-12-18T15:52:04;21.75;;;11.82;;
20611;SDS011;10465;42.686;23.364;2022-12-18T15:54:30;20.52;;;12.30;;
20611;SDS011;10465;42.686;23.364;2022-12-18T15:57:14;22.85;;;12.77;;
20611;SDS011;10465;42.686;23.364;2022-12-18T15:59:48;19.05;;;11.65;;
20611;SDS011;10465;42.686;23.364;2022-12-18T16:02:16;21.27;;;12.13;;
20611;SDS011;10465;42.686;23.364;2022-12-18T16:04:42;21.48;;;12.32;;